Time;durP1;ratioP1;P1;durP2;ratioP2;P2;SDS_P1;SDS_P2;PMS_P1;PMS_P2;Temp;Humidity;BMP_temperature;BMP_pressure;BME280_temperature;BME280_humidity;BME280_pressure;Samples;Min_cycle;Max_cycle;Signal;HPM_P1;HPM_P2
2022/09/15 00:00:16;;;;;;;3.30;3.00;;;;;;;19.06;51.17;94778.59;5011691;28;20292;-66
2022/09/15 00:02:44;;;;;;;6.63;3.03;;;;;;;19.18;50.79;94771.59;5009757;28;20233;-66
2022/09/15 00:05:10;;;;;;;5.18;3.08;;;;;;;19.20;50.97;94772.19;5011360;28;20231;-66
2022/09/15 00:07:36;;;;;;;5.85;3.17;;;;;;;19.13;51.22;94774.88;5011098;28;20332;-66
2022/09/15 00:10:04;;;;;;;5.40;3.13;;;;;;;19.05;51.84;94768.97;5012995;28;20669;-66
2022/09/15 00:12:29;;;;;;;5.72;3.35;;;;;;;19.06;51.72;94770.59;4999620;28;20235;-66
2022/09/15 00:14:55;;;;;;;7.97;3.58;;;;;;;18.97;51.58;94767.34;5011034;28;20254;-66
2022/09/15 00:17:20;;;;;;;3.42;3.03;;;;;;;19.00;51.94;94774.09;5010682;28;20218;-66
2022/09/15 00:19:46;;;;;;;4.35;2.90;;;;;;;19.02;51.45;94774.72;5007628;28;20215;-66
2022/09/15 00:22:11;;;;;;;7.82;3.30;;;;;;;19.02;51.60;94772.06;5010806;28;20235;-66
2022/09/15 00:24:37;;;;;;;5.00;3.20;;;;;;;18.87;52.12;94778.47;5013327;28;20202;-66
2022/09/15 00:27:03;;;;;;;3.67;3.05;;;;;;;18.90;52.39;94771.91;5012054;28;20281;-66
2022/09/15 00:29:28;;;;;;;5.13;3.30;;;;;;;18.87;52.61;94769.63;5001551;28;20319;-66
2022/09/15 00:31:54;;;;;;;6.88;3.83;;;;;;;18.92;52.31;94770.66;5009086;28;20261;-66
2022/09/15 00:34:19;;;;;;;4.28;3.08;;;;;;;18.91;52.62;94773.53;5010346;28;20214;-66
2022/09/15 00:36:44;;;;;;;5.05;3.28;;;;;;;18.72;53.46;94772.50;5006119;28;20207;-66
2022/09/15 00:39:11;;;;;;;5.75;3.40;;;;;;;18.83;53.07;94771.91;5000566;28;20274;-66
2022/09/15 00:41:38;;;;;;;4.78;3.40;;;;;;;18.79;53.16;94768.03;5004366;28;20347;-66
2022/09/15 00:44:25;;;;;;;7.18;3.53;;;;;;;18.91;52.43;94769.00;5003961;28;20318;-66
2022/09/15 00:46:53;;;;;;;4.90;3.40;;;;;;;18.85;52.77;94774.38;5003227;28;20893;-66
2022/09/15 00:49:26;;;;;;;5.93;3.75;;;;;;;18.75;52.89;94769.47;5008149;28;20291;-66
2022/09/15 00:52:16;;;;;;;5.72;3.55;;;;;;;18.70;52.81;94777.22;5002549;28;20207;-66
2022/09/15 00:55:00;;;;;;;5.35;3.30;;;;;;;18.71;52.33;94774.38;5029809;28;20238;-66
2022/09/15 00:57:28;;;;;;;5.60;3.50;;;;;;;18.74;52.37;94778.44;4999068;28;20235;-66
2022/09/15 00:59:56;;;;;;;5.35;3.67;;;;;;;18.83;51.78;94782.56;5010964;28;20231;-66
2022/09/15 01:02:25;;;;;;;6.18;3.47;;;;;;;18.81;51.77;94779.28;5009759;28;20226;-66
2022/09/15 01:04:53;;;;;;;4.63;3.47;;;;;;;18.77;51.50;94778.06;5006717;28;20749;-66
2022/09/15 01:07:26;;;;;;;4.50;2.85;;;;;;;18.67;51.64;94767.78;5007820;28;20206;-66
2022/09/15 01:09:56;;;;;;;7.72;3.30;;;;;;;18.68;51.43;94772.13;5010660;28;20286;-66
2022/09/15 01:12:22;;;;;;;3.72;2.60;;;;;;;18.72;51.39;94770.66;5021826;28;20211;-65
2022/09/15 01:14:48;;;;;;;4.47;2.90;;;;;;;18.63;51.76;94766.59;5007709;28;20254;-65
2022/09/15 01:17:17;;;;;;;7.40;3.08;;;;;;;18.61;51.64;94773.16;5011122;28;20274;-65
2022/09/15 01:20:01;;;;;;;5.63;2.95;;;;;;;18.70;51.35;94767.38;5007226;28;20259;-65
2022/09/15 01:22:48;;;;;;;3.95;2.88;;;;;;;18.62;51.58;94769.44;5008909;28;20234;-65
2022/09/15 01:25:16;;;;;;;5.28;3.35;;;;;;;18.59;51.31;94769.88;5010964;28;20292;-66
2022/09/15 01:28:05;;;;;;;6.90;3.40;;;;;;;18.58;51.52;94768.22;5008687;28;20215;-66
2022/09/15 01:30:43;;;;;;;3.72;3.17;;;;;;;18.55;51.11;94769.47;5024212;28;20723;-65
2022/09/15 01:33:22;;;;;;;4.75;3.10;;;;;;;18.63;51.01;94773.75;4998853;28;20286;-66
2022/09/15 01:36:13;;;;;;;7.40;3.65;;;;;;;18.57;51.52;94762.06;5010545;28;20255;-67
2022/09/15 01:38:41;;;;;;;5.75;3.35;;;;;;;18.44;51.60;94765.59;5000205;28;20223;-67
2022/09/15 01:41:28;;;;;;;5.72;3.50;;;;;;;18.38;51.67;94758.41;5008553;28;20219;-67
2022/09/15 01:44:04;;;;;;;6.10;2.97;;;;;;;18.34;51.52;94767.84;5010636;28;21051;-68
2022/09/15 01:46:34;;;;;;;6.15;3.28;;;;;;;18.45;51.05;94769.88;5005433;28;20230;-67
2022/09/15 01:49:02;;;;;;;6.22;2.83;;;;;;;18.53;51.14;94771.53;5003243;28;20235;-67
2022/09/15 01:51:31;;;;;;;7.25;3.40;;;;;;;18.51;51.10;94763.72;5000940;28;20219;-67
2022/09/15 01:54:00;;;;;;;5.50;3.35;;;;;;;18.43;51.67;94766.59;5005622;28;20323;-67
2022/09/15 01:56:26;;;;;;;5.65;3.35;;;;;;;18.30;52.06;94763.94;5000971;28;20599;-67
2022/09/15 01:58:52;;;;;;;4.93;3.97;;;;;;;18.30;52.24;94771.94;5008167;28;20222;-66
2022/09/15 02:01:43;;;;;;;4.65;3.45;;;;;;;18.35;51.92;94766.81;5019701;28;20209;-66
2022/09/15 02:04:20;;;;;;;6.78;3.60;;;;;;;18.37;51.60;94762.13;5015671;28;20277;-66
2022/09/15 02:07:19;;;;;;;5.40;3.55;;;;;;;18.22;52.07;94764.16;5020183;28;20522;-66
2022/09/15 02:10:01;;;;;;;5.32;3.45;;;;;;;18.27;51.72;94756.38;4968027;28;20228;-66
2022/09/15 02:12:42;;;;;;;6.70;3.55;;;;;;;18.25;51.75;94756.56;4963019;28;20244;-66
2022/09/15 02:15:13;;;;;;;6.43;3.75;;;;;;;18.26;51.25;94754.75;4950133;28;20234;-66
2022/09/15 02:17:47;;;;;;;3.63;3.25;;;;;;;18.31;51.17;94744.31;4954163;28;20603;-66
2022/09/15 02:20:16;;;;;;;7.70;3.72;;;;;;;18.17;51.44;94750.66;4955149;28;20225;-66
2022/09/15 02:23:15;;;;;;;4.00;3.22;;;;;;;18.23;51.61;94752.47;4953422;28;20275;-66
2022/09/15 02:25:47;;;;;;;4.35;3.63;;;;;;;18.27;51.22;94751.88;4952788;28;20235;-66
2022/09/15 02:28:15;;;;;;;6.63;3.28;;;;;;;18.23;51.73;94749.81;4951628;28;20207;-67
2022/09/15 02:30:45;;;;;;;3.63;3.33;;;;;;;18.23;51.43;94744.50;4971050;28;20204;-66
2022/09/15 02:33:15;;;;;;;4.38;3.25;;;;;;;18.12;51.90;94742.47;4949643;29;20225;-67
2022/09/15 02:35:42;;;;;;;5.88;3.47;;;;;;;18.14;51.95;94751.06;4967622;28;20244;-67
2022/09/15 02:38:09;;;;;;;6.72;3.72;;;;;;;18.10;52.37;94736.53;4957943;28;20224;-66
2022/09/15 02:40:38;;;;;;;4.78;2.90;;;;;;;18.01;52.80;94734.06;4952144;28;20232;-67
2022/09/15 02:43:06;;;;;;;5.35;3.33;;;;;;;17.94;52.76;94729.78;4967717;28;20224;-66
2022/09/15 02:45:32;;;;;;;7.28;3.45;;;;;;;17.97;52.78;94732.84;4958451;28;20294;-66
2022/09/15 02:47:58;;;;;;;11.93;3.83;;;;;;;17.99;52.66;94733.47;4984485;28;20251;-66
2022/09/15 02:50:25;;;;;;;4.65;3.50;;;;;;;17.92;53.00;94740.63;4975831;28;20233;-66
2022/09/15 02:52:52;;;;;;;10.18;3.97;;;;;;;17.93;53.55;94752.06;4981178;28;20225;-66
2022/09/15 02:55:17;;;;;;;5.15;3.50;;;;;;;17.81;54.01;94751.88;4988331;28;20227;-66
2022/09/15 02:57:43;;;;;;;6.22;4.05;;;;;;;17.97;54.41;94751.47;4987819;28;20196;-66
2022/09/15 03:00:12;;;;;;;5.32;3.67;;;;;;;17.97;53.78;94740.81;4983125;28;20764;-66
2022/09/15 03:02:38;;;;;;;5.25;3.63;;;;;;;17.78;54.45;94746.94;4987712;28;20224;-66
2022/09/15 03:05:05;;;;;;;7.57;3.97;;;;;;;17.82;54.14;94745.50;4989671;28;20274;-66
2022/09/15 03:07:30;;;;;;;8.32;4.60;;;;;;;17.71;54.41;94743.44;4988691;28;20223;-66
2022/09/15 03:09:57;;;;;;;6.93;4.18;;;;;;;17.67;54.83;94751.00;4989110;28;20258;-66
2022/09/15 03:12:23;;;;;;;7.35;4.00;;;;;;;17.68;54.60;94743.84;4984588;28;20709;-66
2022/09/15 03:14:49;;;;;;;5.10;3.45;;;;;;;17.57;55.09;94755.88;4983752;28;20238;-66
2022/09/15 03:17:15;;;;;;;8.18;4.20;;;;;;;17.70;55.18;94761.22;4986800;28;20342;-66
2022/09/15 03:19:41;;;;;;;8.15;4.55;;;;;;;17.74;54.66;94765.09;4987263;28;20224;-66
2022/09/15 03:22:08;;;;;;;6.75;4.10;;;;;;;17.69;54.86;94769.41;4977752;28;20271;-66
2022/09/15 03:24:33;;;;;;;8.52;4.15;;;;;;;17.68;54.43;94767.78;4982916;28;20673;-66
2022/09/15 03:26:59;;;;;;;7.53;4.28;;;;;;;17.49;55.81;94780.00;4994245;28;20224;-67
2022/09/15 03:29:25;;;;;;;7.75;4.20;;;;;;;17.51;55.81;94778.78;4999686;28;20461;-66
2022/09/15 03:31:50;;;;;;;6.80;4.05;;;;;;;17.47;55.58;94785.50;5011512;28;20280;-66
2022/09/15 03:34:15;;;;;;;6.50;4.07;;;;;;;17.39;56.00;94781.19;5010601;28;20289;-66
2022/09/15 03:36:41;;;;;;;8.55;4.72;;;;;;;17.00;57.14;94773.03;5007048;28;20203;-66
2022/09/15 03:39:06;;;;;;;6.75;4.00;;;;;;;17.02;57.64;94779.00;5019726;28;20225;-66
2022/09/15 03:41:32;;;;;;;9.88;4.72;;;;;;;17.32;57.02;94777.69;5014490;28;20687;-66
2022/09/15 03:43:57;;;;;;;7.35;4.88;;;;;;;17.11;58.22;94777.81;5010921;28;20228;-66
2022/09/15 03:46:22;;;;;;;9.73;4.30;;;;;;;17.24;58.00;94777.03;5012301;28;20214;-66
2022/09/15 03:48:48;;;;;;;9.85;5.13;;;;;;;17.28;57.33;94773.78;5009441;28;20211;-65
2022/09/15 03:51:13;;;;;;;12.52;5.05;;;;;;;17.14;57.35;94777.41;5004671;28;20235;-66
2022/09/15 03:53:40;;;;;;;9.00;5.18;;;;;;;17.28;56.57;94776.44;5010713;28;20230;-65
2022/09/15 03:56:12;;;;;;;10.40;4.85;;;;;;;17.24;57.38;94771.72;5001431;28;20216;-65
2022/09/15 03:58:38;;;;;;;13.63;5.43;;;;;;;17.20;57.52;94763.34;4994534;28;20684;-66
2022/09/15 04:01:03;;;;;;;11.40;5.20;;;;;;;17.32;56.99;94774.19;5004678;28;20215;-66
2022/09/15 04:03:30;;;;;;;6.50;5.07;;;;;;;17.29;57.06;94774.59;5013785;28;20215;-66
2022/09/15 04:05:56;;;;;;;9.02;4.90;;;;;;;17.22;57.22;94779.91;5013364;28;20264;-66
2022/09/15 04:08:21;;;;;;;8.95;4.93;;;;;;;17.31;56.73;94769.91;5011415;28;20239;-66
2022/09/15 04:10:47;;;;;;;8.48;4.55;;;;;;;17.34;56.09;94769.50;5008704;28;20695;-66
2022/09/15 04:13:12;;;;;;;11.77;5.03;;;;;;;17.35;55.62;94779.13;5006112;28;20192;-66
2022/09/15 04:15:38;;;;;;;16.85;4.85;;;;;;;17.37;54.83;94782.41;5011007;28;20201;-66
2022/09/15 04:18:03;;;;;;;13.85;5.03;;;;;;;17.33;54.38;94781.16;5012013;28;20321;-66
2022/09/15 04:20:30;;;;;;;13.35;5.32;;;;;;;17.39;54.41;94780.38;5016973;28;20596;-66
2022/09/15 04:22:56;;;;;;;12.75;5.47;;;;;;;17.34;54.13;94766.84;5011652;28;20314;-66
2022/09/15 04:25:21;;;;;;;12.77;5.50;;;;;;;17.35;54.26;94765.84;5010514;28;20297;-66
2022/09/15 04:27:47;;;;;;;19.67;6.03;;;;;;;17.33;54.38;94760.72;5011173;28;20241;-67
2022/09/15 04:30:12;;;;;;;16.02;5.18;;;;;;;17.35;54.42;94757.88;5011045;28;20456;-66
2022/09/15 04:32:38;;;;;;;16.73;5.82;;;;;;;17.33;54.40;94767.88;5011323;28;20215;-67
2022/09/15 04:35:04;;;;;;;14.82;5.20;;;;;;;17.46;54.14;94767.94;5008044;28;20257;-66
2022/09/15 04:37:30;;;;;;;14.50;4.93;;;;;;;17.54;54.09;94764.28;5011333;28;20225;-66
2022/09/15 04:39:56;;;;;;;16.48;5.32;;;;;;;17.61;53.64;94763.25;5010441;28;20214;-67
2022/09/15 04:42:22;;;;;;;11.15;5.30;;;;;;;17.61;53.68;94762.41;5016161;28;20219;-66
2022/09/15 04:44:48;;;;;;;17.65;5.47;;;;;;;17.67;53.68;94764.28;5009309;28;20222;-66
2022/09/15 04:47:13;;;;;;;12.13;4.75;;;;;;;17.74;53.58;94766.97;5006837;28;20232;-67
2022/09/15 04:49:39;;;;;;;15.70;5.55;;;;;;;17.70;53.81;94774.53;5015951;28;20307;-67
2022/09/15 04:52:04;;;;;;;19.13;6.10;;;;;;;17.66;54.04;94765.31;5011878;28;20206;-66
2022/09/15 04:54:30;;;;;;;17.88;5.78;;;;;;;17.69;53.98;94762.22;5009456;28;20347;-66
2022/09/15 04:56:56;;;;;;;11.77;5.07;;;;;;;17.82;54.17;94764.94;5006109;28;20222;-66
2022/09/15 04:59:22;;;;;;;10.75;5.63;;;;;;;17.84;53.50;94770.06;5008451;28;20224;-67
2022/09/15 05:01:47;;;;;;;11.60;5.10;;;;;;;17.87;52.84;94766.19;5009099;28;20218;-66
2022/09/15 05:04:13;;;;;;;13.70;4.95;;;;;;;17.95;52.49;94777.44;5007373;28;20211;-67
2022/09/15 05:06:39;;;;;;;14.00;5.22;;;;;;;17.91;53.37;94768.25;5009165;28;20477;-67
2022/09/15 05:09:06;;;;;;;12.57;5.22;;;;;;;17.81;53.79;94765.16;5008505;28;20257;-68
2022/09/15 05:11:32;;;;;;;11.38;5.22;;;;;;;17.90;54.03;94771.09;5011384;28;20264;-67
2022/09/15 05:13:58;;;;;;;15.05;5.63;;;;;;;17.99;53.49;94769.88;5009166;28;20222;-67
2022/09/15 05:16:26;;;;;;;13.38;5.85;;;;;;;18.05;53.89;94774.41;5004668;28;20226;-67
2022/09/15 05:18:53;;;;;;;14.50;5.45;;;;;;;18.12;53.20;94769.06;5001180;28;20207;-68
2022/09/15 05:21:21;;;;;;;14.23;5.43;;;;;;;17.98;54.11;94757.59;5008502;28;20222;-69
2022/09/15 05:23:47;;;;;;;10.85;5.38;;;;;;;18.14;53.97;94753.72;5012240;28;20580;-68
2022/09/15 05:26:16;;;;;;;9.27;5.72;;;;;;;18.17;53.69;94753.31;5006426;28;20226;-68
2022/09/15 05:28:41;;;;;;;13.10;5.15;;;;;;;18.32;53.11;94745.13;5015512;28;20266;-70
2022/09/15 05:31:10;;;;;;;10.13;4.97;;;;;;;18.21;53.23;94752.69;5007192;28;20214;-68
2022/09/15 05:33:36;;;;;;;10.45;4.70;;;;;;;18.43;52.70;94753.28;5006984;28;20269;-69
2022/09/15 05:36:03;;;;;;;8.30;4.28;;;;;;;18.25;53.72;94751.25;5007973;28;20223;-69
2022/09/15 05:38:30;;;;;;;8.35;4.35;;;;;;;18.39;52.78;94744.09;5009758;28;20277;-69
2022/09/15 05:41:06;;;;;;;12.93;4.70;;;;;;;18.45;51.97;94753.09;5011872;28;20292;-69
2022/09/15 05:43:34;;;;;;;6.22;4.13;;;;;;;18.57;51.14;94740.78;5008604;28;20719;-69
2022/09/15 05:46:00;;;;;;;6.32;3.97;;;;;;;18.61;51.21;94742.00;5007072;28;20200;-69
2022/09/15 05:48:25;;;;;;;11.57;4.68;;;;;;;18.71;51.46;94739.75;5005001;28;20306;-69
2022/09/15 05:50:52;;;;;;;13.20;4.43;;;;;;;18.75;51.19;94731.34;5007239;28;20306;-68
2022/09/15 05:53:19;;;;;;;10.55;4.93;;;;;;;18.79;51.16;94736.06;4996478;28;20215;-68
2022/09/15 05:55:45;;;;;;;11.75;4.68;;;;;;;18.75;51.82;94726.03;5008460;28;20326;-69
2022/09/15 05:58:11;;;;;;;12.93;4.95;;;;;;;18.94;50.99;94731.28;4996701;28;20207;-67
2022/09/15 06:00:36;;;;;;;6.55;4.07;;;;;;;19.05;50.16;94723.66;5008602;28;20289;-68
2022/09/15 06:03:02;;;;;;;8.93;5.38;;;;;;;19.30;49.41;94716.59;5003670;28;20696;-69
2022/09/15 06:05:28;;;;;;;10.70;5.00;;;;;;;19.37;49.23;94728.00;4999468;28;20227;-69
2022/09/15 06:07:54;;;;;;;9.13;4.82;;;;;;;19.24;49.97;94730.75;5006294;28;20320;-69
2022/09/15 06:10:23;;;;;;;11.68;5.53;;;;;;;19.26;49.93;94718.03;5008513;28;20286;-69
2022/09/15 06:12:52;;;;;;;8.93;4.45;;;;;;;19.36;50.01;94721.06;5009094;28;20199;-69
2022/09/15 06:15:21;;;;;;;7.70;5.97;;;;;;;19.42;49.73;94727.38;4998749;28;20598;-69
2022/09/15 06:17:46;;;;;;;9.82;5.68;;;;;;;19.55;48.91;94731.84;5000874;28;20230;-69
2022/09/15 06:20:12;;;;;;;10.93;5.32;;;;;;;19.68;48.68;94742.44;5010529;28;20218;-69
2022/09/15 06:22:38;;;;;;;12.35;5.45;;;;;;;19.70;48.34;94745.72;5007253;28;20230;-69
2022/09/15 06:25:04;;;;;;;14.68;5.97;;;;;;;19.84;48.04;94738.44;5005854;28;20206;-69
2022/09/15 06:27:30;;;;;;;12.25;5.38;;;;;;;19.92;48.54;94737.38;5003921;28;20247;-67
2022/09/15 06:29:55;;;;;;;10.95;5.43;;;;;;;19.99;48.66;94727.44;5006604;28;20274;-67
2022/09/15 06:32:21;;;;;;;10.07;6.13;;;;;;;20.05;48.36;94708.72;5009954;28;20238;-66
2022/09/15 06:34:46;;;;;;;13.18;6.53;;;;;;;20.13;47.70;94718.31;5001210;28;20330;-67
2022/09/15 06:37:12;;;;;;;8.82;4.78;;;;;;;20.22;47.08;94725.00;4996807;28;20294;-66
2022/09/15 06:39:38;;;;;;;10.45;5.38;;;;;;;20.31;46.21;94725.53;5005861;28;20238;-67
2022/09/15 06:42:03;;;;;;;8.98;4.90;;;;;;;20.38;45.91;94712.94;5007581;28;20764;-66
2022/09/15 06:44:29;;;;;;;6.97;4.25;;;;;;;20.41;45.39;94717.03;5004104;28;20679;-66
2022/09/15 06:46:54;;;;;;;11.50;4.32;;;;;;;20.34;45.13;94718.94;5007272;28;20949;-67
2022/09/15 06:49:20;;;;;;;8.30;4.85;;;;;;;20.44;45.04;94725.41;5009402;28;20238;-67
2022/09/15 06:52:01;;;;;;;11.23;4.85;;;;;;;20.43;45.37;94731.00;5009041;28;20647;-65
2022/09/15 06:54:27;;;;;;;10.57;4.07;;;;;;;20.46;44.37;94725.22;5004680;28;20244;-62
2022/09/15 06:56:52;;;;;;;7.38;4.38;;;;;;;20.51;43.72;94735.25;5009610;28;20630;-67
2022/09/15 06:59:18;;;;;;;9.48;4.20;;;;;;;20.61;43.03;94730.22;5009401;28;20639;-66
2022/09/15 07:01:43;;;;;;;11.02;4.50;;;;;;;20.63;43.28;94739.66;5007979;28;20347;-66
2022/09/15 07:04:09;;;;;;;8.52;4.05;;;;;;;20.70;43.18;94750.28;5006883;28;20223;-66
2022/09/15 07:06:37;;;;;;;6.93;4.45;;;;;;;20.84;42.30;94740.25;5005772;28;20261;-66
2022/09/15 07:09:04;;;;;;;10.00;5.07;;;;;;;20.75;43.31;94745.09;5001205;28;20241;-66
2022/09/15 07:11:30;;;;;;;7.40;4.97;;;;;;;20.89;43.28;94748.44;5008499;28;20273;-66
2022/09/15 07:13:56;;;;;;;4.28;3.35;;;;;;;20.89;42.74;94764.47;5014052;28;20219;-66
2022/09/15 07:16:24;;;;;;;8.75;4.38;;;;;;;20.94;42.86;94772.66;5010944;28;20209;-66
2022/09/15 07:18:52;;;;;;;7.82;3.40;;;;;;;21.06;42.98;94781.56;5005560;28;20337;-66
2022/09/15 07:21:20;;;;;;;5.95;3.67;;;;;;;21.12;42.53;94769.97;5008107;28;20215;-66
2022/09/15 07:23:46;;;;;;;10.23;4.00;;;;;;;21.24;42.42;94766.53;5011067;28;20229;-66
2022/09/15 07:26:16;;;;;;;8.60;4.13;;;;;;;21.25;42.56;94777.03;5006735;28;20215;-66
2022/09/15 07:28:45;;;;;;;10.20;4.50;;;;;;;21.28;42.60;94789.13;4995884;28;20334;-66
2022/09/15 07:31:14;;;;;;;12.90;4.55;;;;;;;21.25;42.90;94793.09;5004429;28;20238;-66
2022/09/15 07:33:40;;;;;;;5.18;4.00;;;;;;;21.32;43.04;94791.13;5016995;28;20225;-66
2022/09/15 07:36:07;;;;;;;10.80;4.35;;;;;;;21.49;43.16;94802.09;5007076;28;20305;-66
2022/09/15 07:38:45;;;;;;;8.13;4.20;;;;;;;21.54;43.07;94802.22;5009247;28;20222;-66
2022/09/15 07:41:13;;;;;;;11.40;5.10;;;;;;;21.62;42.36;94803.75;4996227;28;20219;-66
2022/09/15 07:43:39;;;;;;;8.93;5.25;;;;;;;21.70;41.71;94803.44;5003399;28;20227;-66
2022/09/15 07:46:05;;;;;;;8.45;4.95;;;;;;;21.72;41.29;94798.69;5008156;28;20843;-66
2022/09/15 07:48:31;;;;;;;9.95;5.60;;;;;;;21.76;42.18;94791.03;5010891;28;20210;-67
2022/09/15 07:50:58;;;;;;;8.23;4.65;;;;;;;21.80;42.28;94787.66;4991775;28;20227;-66
2022/09/15 07:53:27;;;;;;;9.60;5.82;;;;;;;21.79;42.86;94791.38;5008368;28;21004;-66
2022/09/15 07:55:53;;;;;;;9.85;5.90;;;;;;;21.87;42.46;94776.88;5004508;28;20253;-67
2022/09/15 07:58:18;;;;;;;8.43;5.60;;;;;;;21.98;41.96;94778.78;5006257;28;20195;-66
2022/09/15 08:00:44;;;;;;;13.70;5.43;;;;;;;22.14;41.43;94781.84;5006049;28;20274;-66
2022/09/15 08:03:11;;;;;;;8.90;5.53;;;;;;;22.14;41.17;94787.19;5000010;28;20592;-66
2022/09/15 08:05:37;;;;;;;9.75;5.82;;;;;;;22.20;41.62;94781.75;5007778;28;20222;-66
2022/09/15 08:08:03;;;;;;;14.18;6.32;;;;;;;22.20;42.05;94780.94;5005824;28;20215;-66
2022/09/15 08:10:28;;;;;;;10.38;6.30;;;;;;;22.15;42.04;94778.91;5006525;28;20354;-66
2022/09/15 08:12:54;;;;;;;7.70;6.22;;;;;;;22.21;42.08;94782.56;5009031;28;20199;-66
2022/09/15 08:15:20;;;;;;;13.63;6.65;;;;;;;22.16;41.29;94780.56;5002090;28;20223;-66
2022/09/15 08:17:45;;;;;;;12.15;5.95;;;;;;;22.33;40.93;94777.25;5009907;28;20227;-66
2022/09/15 08:20:11;;;;;;;11.70;6.22;;;;;;;22.39;41.21;94771.78;5011086;28;20638;-66
2022/09/15 08:22:38;;;;;;;8.50;6.15;;;;;;;22.40;41.14;94772.59;5004988;28;20219;-66
2022/09/15 08:25:04;;;;;;;7.03;4.93;;;;;;;22.50;41.02;94774.69;5008746;28;20220;-66
2022/09/15 08:27:29;;;;;;;8.23;5.20;;;;;;;22.60;40.76;94770.41;5013105;28;20747;-66
2022/09/15 08:29:55;;;;;;;8.45;5.38;;;;;;;22.67;40.07;94760.38;5009039;28;20239;-66
2022/09/15 08:32:20;;;;;;;6.72;4.38;;;;;;;22.76;40.49;94746.63;5010265;28;20219;-66
2022/09/15 08:34:45;;;;;;;8.20;4.97;;;;;;;22.93;40.67;94752.09;4999861;28;20225;-66
2022/09/15 08:37:11;;;;;;;8.18;4.63;;;;;;;22.98;40.31;94744.19;5011092;28;20272;-66
2022/09/15 08:39:36;;;;;;;8.93;4.68;;;;;;;22.99;40.29;94748.47;5014695;28;20214;-66
2022/09/15 08:42:03;;;;;;;10.88;4.70;;;;;;;23.13;39.52;94747.19;5003581;28;20269;-66
2022/09/15 08:44:48;;;;;;;9.93;4.50;;;;;;;23.18;39.13;94735.78;5013837;28;20228;-66
2022/09/15 08:47:19;;;;;;;7.35;4.43;;;;;;;23.30;39.23;94733.84;5008685;28;20219;-67
2022/09/15 08:49:55;;;;;;;7.00;4.30;;;;;;;23.38;39.08;94738.03;5005812;28;20226;-66
2022/09/15 08:52:24;;;;;;;10.85;4.80;;;;;;;23.51;38.67;94741.25;5000929;28;20267;-66
2022/09/15 08:54:54;;;;;;;10.32;4.35;;;;;;;23.55;38.69;94738.91;5002206;28;20250;-66
2022/09/15 08:57:22;;;;;;;9.68;4.65;;;;;;;23.60;38.49;94735.50;5010343;28;20215;-66
2022/09/15 08:59:47;;;;;;;6.38;4.35;;;;;;;23.74;37.33;94732.31;5006041;28;20231;-66
2022/09/15 09:02:28;;;;;;;8.55;4.88;;;;;;;23.88;37.94;94732.03;5008181;28;20763;-66
2022/09/15 09:05:28;;;;;;;10.15;4.30;;;;;;;23.99;38.28;94720.41;5002769;28;21006;-66
2022/09/15 09:08:15;;;;;;;10.25;4.50;;;;;;;24.17;37.58;94722.84;5001373;28;20251;-66
2022/09/15 09:10:50;;;;;;;8.85;4.03;;;;;;;24.35;37.74;94718.28;5006321;28;20223;-66
2022/09/15 09:13:21;;;;;;;10.80;4.38;;;;;;;24.51;37.30;94714.00;5002514;28;20621;-66
2022/09/15 09:16:21;;;;;;;8.75;4.38;;;;;;;24.70;36.78;94718.06;5010337;28;20203;-66
2022/09/15 09:19:26;;;;;;;13.57;4.60;;;;;;;24.88;36.67;94711.56;4998307;28;20258;-66
2022/09/15 09:22:00;;;;;;;7.55;3.60;;;;;;;25.01;36.10;94713.91;4994892;28;20227;-66
2022/09/15 09:25:02;;;;;;;6.80;4.18;;;;;;;25.09;35.17;94705.38;5008257;28;20280;-66
2022/09/15 09:27:33;;;;;;;7.85;3.90;;;;;;;25.20;37.04;94710.94;4967424;28;20230;-66
2022/09/15 09:29:59;;;;;;;10.25;4.38;;;;;;;25.30;35.26;94708.38;4980708;28;20271;-66
2022/09/15 09:32:31;;;;;;;11.80;4.35;;;;;;;25.49;34.75;94698.09;4992034;28;20257;-66
2022/09/15 09:35:14;;;;;;;5.40;3.55;;;;;;;25.47;35.14;94684.91;4974207;28;20339;-66
2022/09/15 09:37:39;;;;;;;8.35;4.28;;;;;;;25.47;35.16;94678.66;4987569;28;20942;-66
2022/09/15 09:40:05;;;;;;;12.27;4.70;;;;;;;25.56;35.43;94677.16;4985537;28;20287;-66
2022/09/15 09:42:35;;;;;;;7.80;4.22;;;;;;;25.71;35.60;94676.50;4970944;28;21078;-65
2022/09/15 09:45:03;;;;;;;8.35;3.83;;;;;;;25.81;35.08;94675.78;4972996;28;20224;-65
2022/09/15 09:47:32;;;;;;;7.80;4.13;;;;;;;25.80;34.53;94679.56;4977507;28;20367;-65
2022/09/15 09:49:58;;;;;;;6.60;4.57;;;;;;;25.92;35.85;94689.09;4982997;28;20311;-65
2022/09/15 09:52:34;;;;;;;7.95;4.10;;;;;;;26.17;35.54;94691.22;4981813;28;20207;-66
2022/09/15 09:55:19;;;;;;;7.40;4.32;;;;;;;26.32;34.87;94687.81;4985477;28;20283;-65
2022/09/15 09:57:44;;;;;;;7.90;4.70;;;;;;;26.50;34.33;94685.81;4983468;28;20226;-65
2022/09/15 10:00:33;;;;;;;6.63;4.47;;;;;;;26.60;35.47;94678.63;4969644;28;20227;-65
2022/09/15 10:03:16;;;;;;;8.70;4.47;;;;;;;26.71;34.12;94676.81;5002149;28;20266;-65
2022/09/15 10:05:43;;;;;;;7.93;4.88;;;;;;;26.82;33.25;94678.47;5009917;28;20227;-65
2022/09/15 10:08:19;;;;;;;11.52;5.00;;;;;;;26.99;33.24;94672.88;5007670;28;20219;-65
2022/09/15 10:10:53;;;;;;;10.05;4.75;;;;;;;27.08;33.22;94670.53;5004477;28;20211;-64
2022/09/15 10:13:20;;;;;;;15.00;4.82;;;;;;;27.18;33.91;94667.06;5008620;28;20258;-65
2022/09/15 10:15:52;;;;;;;6.82;4.50;;;;;;;27.34;33.12;94666.03;5007869;28;20260;-65
2022/09/15 10:18:27;;;;;;;10.05;4.65;;;;;;;26.95;31.68;94665.59;5002060;28;20223;-66
2022/09/15 10:20:53;;;;;;;11.20;4.78;;;;;;;27.25;31.05;94675.72;5004876;28;20252;-65
2022/09/15 10:23:20;;;;;;;11.38;5.05;;;;;;;27.48;30.57;94674.47;5007374;28;20471;-65
2022/09/15 10:25:47;;;;;;;8.27;4.43;;;;;;;27.68;30.63;94671.00;5008814;28;20287;-65
2022/09/15 10:28:15;;;;;;;5.93;4.25;;;;;;;28.11;30.47;94672.41;5010905;28;20249;-65
2022/09/15 10:31:26;;;;;;;8.48;4.25;;;;;;;28.12;33.10;94663.25;5009065;28;20234;-65
2022/09/15 10:33:52;;;;;;;9.38;4.38;;;;;;;28.10;32.16;94660.00;4942189;28;20231;-65
2022/09/15 10:36:29;;;;;;;9.52;3.75;;;;;;;28.24;32.41;94649.44;4947328;28;20276;-65
2022/09/15 10:38:54;;;;;;;10.02;3.80;;;;;;;28.43;30.07;94647.00;4946189;28;20232;-66
2022/09/15 10:41:27;;;;;;;7.75;4.10;;;;;;;28.43;30.69;94641.59;4949853;28;20235;-66
2022/09/15 10:44:05;;;;;;;9.38;3.88;;;;;;;28.66;30.77;94644.81;4945961;28;20263;-65
2022/09/15 10:46:49;;;;;;;10.38;4.18;;;;;;;28.77;30.24;94643.72;4949735;28;20230;-66
2022/09/15 10:49:29;;;;;;;7.30;3.70;;;;;;;28.77;30.19;94644.50;4966374;28;20278;-64
2022/09/15 10:52:13;;;;;;;7.90;4.32;;;;;;;28.76;30.06;94644.78;4970836;28;20215;-63
2022/09/15 10:55:00;;;;;;;8.93;4.18;;;;;;;28.73;30.39;94645.31;4944675;28;20246;-64
2022/09/15 10:57:44;;;;;;;9.48;4.03;;;;;;;28.72;29.23;94641.00;4953117;28;20287;-63
2022/09/15 11:00:16;;;;;;;9.32;4.78;;;;;;;29.09;30.98;94631.72;4952925;28;20290;-63
2022/09/15 11:03:00;;;;;;;10.00;3.88;;;;;;;29.42;28.73;94628.28;4948967;28;20224;-63
2022/09/15 11:05:40;;;;;;;8.43;4.13;;;;;;;29.79;29.32;94624.28;4948470;28;20262;-63
2022/09/15 11:08:30;;;;;;;8.57;3.63;;;;;;;29.80;28.37;94619.69;4968781;28;20227;-63
2022/09/15 11:11:01;;;;;;;10.02;3.78;;;;;;;29.63;27.90;94615.44;5005051;28;20226;-62
2022/09/15 11:14:16;;;;;;;9.95;3.92;;;;;;;29.43;28.97;94610.97;5007982;28;20946;-65
2022/09/15 11:17:11;;;;;;;11.48;4.18;;;;;;;29.23;28.23;94597.53;4908650;29;20222;-64
2022/09/15 11:19:50;;;;;;;7.90;3.22;;;;;;;29.16;28.84;94605.97;4927151;29;20229;-63
2022/09/15 11:22:27;;;;;;;5.68;3.33;;;;;;;29.00;28.55;94602.50;4916837;29;20225;-63
2022/09/15 11:25:00;;;;;;;5.57;3.75;;;;;;;28.89;29.86;94600.91;4908507;29;20820;-63
2022/09/15 11:27:32;;;;;;;6.55;3.67;;;;;;;28.96;28.63;94592.50;4912692;29;20297;-63
2022/09/15 11:30:13;;;;;;;11.77;4.07;;;;;;;29.18;28.97;94590.22;4908969;29;20269;-63
2022/09/15 11:32:59;;;;;;;11.07;4.40;;;;;;;29.47;28.46;94589.53;4913748;29;20273;-63
2022/09/15 11:35:58;;;;;;;7.00;3.90;;;;;;;29.86;29.24;94588.75;4925146;29;20225;-63
2022/09/15 11:39:00;;;;;;;6.90;4.57;;;;;;;30.14;28.29;94584.44;4910112;29;20231;-63
2022/09/15 11:41:39;;;;;;;8.85;3.42;;;;;;;30.29;27.14;94580.81;4837200;29;20236;-65
2022/09/15 11:44:29;;;;;;;5.90;3.40;;;;;;;30.47;26.33;94581.97;4855627;29;20318;-64
2022/09/15 11:47:04;;;;;;;6.88;3.53;;;;;;;30.45;24.71;94578.75;4854891;29;20730;-65